Etusivu
METAR-TAF:

METAR-TAF

Lentoasemat :

Funafuti, Tuvalu

Funafutin kansainvälinen lentoasema

Leveyspiiri: 08-31S, Pituuspiiri: 179-13E, korkeus merenpinnasta: 1 m

Tämänhetkinen sää

Tämä raportti tehtiin 48 minuuttia sitten, kello 18.00 UTC
Tuuli 11 kn idästä
Lämpötila 27°C
Kosteus 89%
Ilmanpaine 1008 hPa
Näkyvyys 10 km tai enemmän
Hajanaisia pilviä 1800 ft:n korkeudessa, Cumulonimbus.
Pilvistä 11000 ft:n korkeudessa
sadekuuroja näköpiirissä

METAR: NGFU 231800Z 08011KT 9999 VCSH SCT018CB OVC110 27/25 Q1008

Aika: 06:48 (18:48 UTC)

Sääennuste

Tämä raportti tehtiin 1 tunti ja 40 minuuttia sitten, kello 17.08 UTC
Ennuste voimassa 23. päivästä klo 18 UTC - 24. päivään klo 18 UTC
Tuuli 13 kn idästä
Näkyvyys 10 km tai enemmän
Hajanaisia pilviä 1800 ft:n korkeudessa
Hajonneita pilviä 10000 ft:n korkeudessa

TAF: NGFU 231708Z 2318/2418 10013KT 9999 SCT018 BKN100

Säähavainnot ja -ennusteet yli 4000 lentoasemalta (METAR- ja TAF-raportit).

Käytössä olevat sääasemat on merkitty karttaan keltaisilla ja punaisilla pisteillä.

Aseta hiiri pisteen päälle nähdäksesi sääaseman nimen.

Klikkaa sitten nähdäksesi säähavainnot ja -ennusteet.

Kartan vaihtaminen: klikkaa mustalla rastilla varustettuja vihreitä pisteitä, niin voit zoomata sisään; viivalla varustettua vihreää pistettä, niin voit zoomata ulos tai vihreitä nuolia, niin pääset viereisille kartoille.


METAR-TAF: